首页
METAR-TAF:

METAR-TAF

机场 :

Resolute, 努那武特, 加拿大

纬度: 74-43N, 经度: 094-59W, 海拔: 67米

当前天气观测

该预报发布于37分钟前的14:00 UTC
风速11节,风向北转西北
温度 -23°C
湿度 84%
气压 1029 hPa
能見度: 19.3公里
少量云层高于1000英尺
散云层高于8000英尺
冰针

METAR: CYRB 231400Z 33011KT 12SM IC FEW010 SCT080 M23/M25 A3039 RMK ST1AC2 SLP302

时间: 09:37 (14:37 UTC)

预报

该预报发布于2小时和58分钟前的11:39 UTC
预报有效从23日的 12点(UTC)到 24日的 12点(UTC)
风速5节,风向西
能見度: 10公里
散云层高于2000英尺
散云层高于8000英尺
短暂存在
从 23日的 12点(UTC)到 24日的 03点(UTC)
多云层高于2000英尺
成为
从 23日的 12点(UTC)到 23日的 14点(UTC)
风速12节,风向
从 24日的 0300点(UTC)
风速15节,风向北转西北
能見度: 10公里
散云层高于800英尺
多云层高于3000英尺
短暂存在
从 24日的 03点(UTC)到 24日的 12点(UTC)
能見度: 4.8公里
多云层高于800英尺
小雪, 轻雾

TAF: CYRB 231139Z 2312/2412 28005KT P6SM SCT020 SCT080 TEMPO 2312/2403 BKN020 BECMG 2312/2314 35012KT FM240300 34015KT P6SM SCT008 BKN030 TEMPO 2403/2412 3SM -SN BR BKN008 RMK NXT FCST BY 231800Z

超过4000个机场的气象观测和天气预报(METAR&TAF报告)。

可查询的气象台以黄色和红色小点在地图上表示。

将鼠标移到小点上方,可查看气象台名称。

然后点击查看天气观测和预报。

如需切换地图:点击带黑十字的绿色按钮放大地图;点击带横线的绿色按钮缩小地图;或者点击绿色箭头查看邻近地区的地图。


METAR-TAF: